| time (UTC) | temp F | wind direction | speed MPH | gust MPH | rain 1hr in | rain 24hr in | rain mn in | humidity % | barometer mb |
| 20260505001737 | 55 | 94 | 1.0 | 7.0 | 0.08 | 0.20 | 0.20 | 95 | 1014.0 |
| 20260504235938 | 56 | 78 | 0.0 | 5.0 | 0.08 | 0.17 | 0.17 | 95 | 1014.1 |
| 20260504235037 | 56 | 0 | 0.0 | 2.0 | 0.08 | 0.15 | 0.15 | 95 | 1014.0 |
| 20260504233238 | 56 | 0 | 0.0 | 2.0 | 0.08 | 0.14 | 0.14 | 94 | 1014.0 |
| 20260504232338 | 56 | 88 | 0.0 | 3.0 | 0.08 | 0.13 | 0.13 | 94 | 1014.1 |
| 20260504231438 | 56 | 92 | 1.0 | 4.0 | 0.07 | 0.12 | 0.12 | 94 | 1014.2 |
| 20260504230538 | 56 | 0 | 0.0 | 4.0 | 0.06 | 0.10 | 0.10 | 93 | 1014.0 |
| 20260504225638 | 56 | 78 | 0.0 | 1.0 | 0.05 | 0.08 | 0.08 | 93 | 1014.2 |
| 20260504224739 | 56 | 91 | 1.0 | 6.0 | 0.04 | 0.07 | 0.07 | 93 | 1014.3 |
| 20260504223838 | 56 | 95 | 1.0 | 6.0 | 0.05 | 0.07 | 0.07 | 92 | 1014.2 |
| 20260504222938 | 56 | 97 | 1.0 | 3.0 | 0.04 | 0.06 | 0.06 | 91 | 1014.4 |
| 20260504222038 | 57 | 104 | 1.0 | 5.0 | 0.03 | 0.05 | 0.05 | 91 | 1014.5 |
| 20260504221138 | 57 | 81 | 0.0 | 3.0 | 0.02 | 0.04 | 0.04 | 89 | 1014.4 |
| 20260504214438 | 59 | 94 | 1.0 | 3.0 | 0.00 | 0.02 | 0.02 | 84 | 1014.4 |
| 20260504213538 | 60 | 98 | 0.0 | 3.0 | 0.00 | 0.02 | 0.02 | 82 | 1014.6 |
| 20260504212638 | 60 | 0 | 0.0 | 2.0 | 0.00 | 0.02 | 0.02 | 81 | 1014.3 |
| 20260504211738 | 60 | 0 | 0.0 | 2.0 | 0.00 | 0.02 | 0.02 | 80 | 1014.4 |
| 20260504210838 | 60 | 140 | 0.0 | 2.0 | 0.00 | 0.02 | 0.02 | 80 | 1014.5 |
| 20260504205938 | 60 | 131 | 1.0 | 2.0 | 0.00 | 0.02 | 0.02 | 80 | 1014.5 |
| 20260504205038 | 60 | 110 | 1.0 | 4.0 | 0.01 | 0.02 | 0.02 | 82 | 1014.3 |
| 20260504204138 | 60 | 112 | 1.0 | 4.0 | 0.01 | 0.02 | 0.02 | 81 | 1014.5 |
| 20260504203238 | 60 | 117 | 1.0 | 3.0 | 0.01 | 0.02 | 0.02 | 82 | 1014.3 |
| 20260504201438 | 59 | 0 | 0.0 | 2.0 | 0.01 | 0.02 | 0.02 | 82 | 1014.2 |
| 20260504200538 | 59 | 0 | 0.0 | 2.0 | 0.01 | 0.02 | 0.02 | 82 | 1014.3 |
| 20260504195638 | 59 | 127 | 0.0 | 2.0 | 0.01 | 0.02 | 0.02 | 82 | 1014.5 |
| 20260504194738 | 59 | 123 | 1.0 | 3.0 | 0.00 | 0.01 | 0.01 | 82 | 1014.7 |
| 20260504193838 | 60 | 0 | 0.0 | 1.0 | 0.00 | 0.01 | 0.01 | 80 | 1014.8 |
| 20260504192038 | 59 | 96 | 1.0 | 3.0 | 0.00 | 0.01 | 0.01 | 83 | 1014.6 |
| 20260504191138 | 59 | 123 | 1.0 | 3.0 | 0.00 | 0.01 | 0.01 | 84 | 1014.6 |
| 20260504190238 | 58 | 99 | 1.0 | 3.0 | 0.01 | 0.01 | 0.01 | 84 | 1014.6 |
| 20260504185338 | 58 | 126 | 1.0 | 4.0 | 0.01 | 0.01 | 0.01 | 85 | 1014.8 |
| 20260504184438 | 58 | 111 | 1.0 | 5.0 | 0.01 | 0.01 | 0.01 | 85 | 1014.8 |
| 20260504183538 | 58 | 108 | 1.0 | 5.0 | 0.01 | 0.01 | 0.01 | 85 | 1014.8 |
| 20260504182638 | 57 | 124 | 1.0 | 3.0 | 0.01 | 0.01 | 0.01 | 85 | 1014.8 |
| 20260504181738 | 57 | 102 | 1.0 | 5.0 | 0.01 | 0.01 | 0.01 | 85 | 1014.9 |
| 20260504175938 | 57 | 109 | 1.0 | 5.0 | 0.00 | 0.00 | 0.00 | 82 | 1014.7 |
| 20260504175038 | 58 | 111 | 1.0 | 4.0 | 0.00 | 0.00 | 0.00 | 81 | 1014.5 |
| 20260504173238 | 58 | 114 | 1.0 | 4.0 | 0.00 | 0.00 | 0.00 | 81 | 1014.5 |
| 20260504172338 | 58 | 115 | 1.0 | 4.0 | 0.00 | 0.00 | 0.00 | 79 | 1014.4 |
| 20260504171438 | 58 | 117 | 1.0 | 5.0 | 0.00 | 0.00 | 0.00 | 78 | 1014.3 |
| 20260504170538 | 58 | 128 | 1.0 | 3.0 | 0.00 | 0.00 | 0.00 | 79 | 1014.3 |
| 20260504160238 | 57 | 99 | 3.0 | 10.0 | 0.00 | 0.00 | 0.00 | 81 | 1014.1 |
| 20260504150838 | 57 | 124 | 2.0 | 4.0 | 0.00 | 0.00 | 0.00 | 82 | 1013.6 |
| 20260504140538 | 55 | 95 | 1.0 | 6.0 | 0.00 | 0.00 | 0.00 | 85 | 1013.7 |
| 20260504130238 | 54 | 103 | 1.0 | 4.0 | 0.00 | 0.00 | 0.00 | 85 | 1013.2 |
| 20260504110539 | 55 | 118 | 1.0 | 3.0 | 0.00 | 0.00 | 0.00 | 83 | 1012.7 |
| 20260504100238 | 54 | 0 | 0.0 | 2.0 | 0.00 | 0.00 | 0.00 | 84 | 1012.7 |
| 20260504081438 | 55 | 0 | 0.0 | 3.0 | 0.00 | 0.00 | 0.00 | 81 | 1013.1 |
| 20260504080538 | 55 | 102 | 1.0 | 3.0 | 0.00 | 0.00 | 0.00 | 82 | 1013.0 |
| 20260504070238 | 57 | 0 | 0.0 | 2.0 | 0.00 | 0.00 | 0.00 | 77 | 1013.0 |
| 20260504050538 | 60 | 189 | 0.0 | 4.0 | 0.00 | 0.00 | 0.00 | 72 | 1012.3 |
| 20260504045638 | 60 | 208 | 1.0 | 5.0 | 0.00 | 0.00 | 0.00 | 72 | 1012.3 |
| 20260504044738 | 60 | 201 | 1.0 | 5.0 | 0.00 | 0.00 | 0.00 | 71 | 1012.3 |
| 20260504042938 | 61 | 205 | 1.0 | 4.0 | 0.00 | 0.00 | 0.00 | 70 | 1012.1 |
| 20260504041138 | 62 | 205 | 1.0 | 5.0 | 0.00 | 0.00 | 0.00 | 69 | 1011.9 |
| 20260504040238 | 62 | 169 | 1.0 | 3.0 | 0.00 | 0.00 | 0.00 | 69 | 1011.7 |
| 20260504035338 | 62 | 123 | 1.0 | 4.0 | 0.00 | 0.00 | 0.00 | 69 | 1011.7 |
| 20260504034438 | 62 | 124 | 1.0 | 3.0 | 0.00 | 0.00 | 0.00 | 69 | 1011.6 |
| 20260504033539 | 62 | 117 | 1.0 | 3.0 | 0.00 | 0.00 | 0.00 | 69 | 1011.4 |
| 20260504032638 | 63 | 116 | 1.0 | 4.0 | 0.00 | 0.00 | 0.00 | 68 | 1011.2 |
| 20260504031738 | 63 | 127 | 1.0 | 3.0 | 0.00 | 0.00 | 0.00 | 68 | 1011.3 |
| 20260504030838 | 63 | 114 | 1.0 | 3.0 | 0.00 | 0.00 | 0.00 | 67 | 1011.2 |
| 20260504025938 | 64 | 117 | 2.0 | 4.0 | 0.00 | 0.00 | 0.00 | 66 | 1011.1 |
| 20260504025038 | 64 | 212 | 2.0 | 7.0 | 0.00 | 0.00 | 0.00 | 65 | 1010.9 |
| 20260504024138 | 65 | 196 | 2.0 | 5.0 | 0.00 | 0.00 | 0.00 | 64 | 1010.9 |
| 20260504023238 | 65 | 200 | 2.0 | 6.0 | 0.00 | 0.00 | 0.00 | 63 | 1010.7 |
| 20260504021438 | 66 | 212 | 2.0 | 6.0 | 0.00 | 0.00 | 0.00 | 63 | 1010.6 |
| 20260504020539 | 66 | 212 | 1.0 | 6.0 | 0.00 | 0.00 | 0.00 | 62 | 1010.6 |
| 20260504015638 | 67 | 202 | 2.0 | 6.0 | 0.00 | 0.00 | 0.00 | 61 | 1010.6 |
| 20260504014738 | 67 | 221 | 2.0 | 6.0 | 0.00 | 0.00 | 0.00 | 61 | 1010.7 |
| 20260504013838 | 68 | 204 | 1.0 | 5.0 | 0.00 | 0.00 | 0.00 | 61 | 1010.5 |
| 20260504012938 | 68 | 150 | 2.0 | 4.0 | 0.00 | 0.00 | 0.00 | 60 | 1010.5 |
| 20260504012038 | 68 | 207 | 2.0 | 6.0 | 0.00 | 0.00 | 0.00 | 61 | 1010.5 |
| 20260504010238 | 68 | 207 | 2.0 | 6.0 | 0.00 | 0.00 | 0.00 | 59 | 1010.5 |
| 20260504005338 | 69 | 213 | 2.0 | 7.0 | 0.00 | 0.00 | 0.00 | 60 | 1010.5 |
| 20260504004438 | 69 | 221 | 2.0 | 6.0 | 0.00 | 0.00 | 0.00 | 59 | 1010.6 |
| 20260504003538 | 69 | 218 | 3.0 | 10.0 | 0.00 | 0.00 | 0.00 | 60 | 1010.6 |